sensor_id;sensor_type;location;lat;lon;timestamp;temperature;humidity
9450;DHT22;4763;48.370;10.874;2023-04-01T00:00:06;8.10;99.90
9450;DHT22;4763;48.370;10.874;2023-04-01T00:02:54;8.10;99.90
9450;DHT22;4763;48.370;10.874;2023-04-01T00:05:41;8.10;99.90
9450;DHT22;4763;48.370;10.874;2023-04-01T00:08:29;8.20;99.90
9450;DHT22;4763;48.370;10.874;2023-04-01T00:11:18;8.10;99.90
9450;DHT22;4763;48.370;10.874;2023-04-01T00:14:07;8.10;99.90
9450;DHT22;4763;48.370;10.874;2023-04-01T00:16:54;8.10;99.90
9450;DHT22;4763;48.370;10.874;2023-04-01T00:19:41;8.10;99.90
9450;DHT22;4763;48.370;10.874;2023-04-01T00:22:28;8.10;99.90
9450;DHT22;4763;48.370;10.874;2023-04-01T00:25:16;8.10;99.90
9450;DHT22;4763;48.370;10.874;2023-04-01T00:28:04;8.10;99.90
9450;DHT22;4763;48.370;10.874;2023-04-01T00:30:51;8.10;99.90
9450;DHT22;4763;48.370;10.874;2023-04-01T00:33:39;8.10;99.90
9450;DHT22;4763;48.370;10.874;2023-04-01T00:36:26;8.10;99.90
9450;DHT22;4763;48.370;10.874;2023-04-01T00:39:13;8.10;99.90
9450;DHT22;4763;48.370;10.874;2023-04-01T00:42:01;8.10;99.90
9450;DHT22;4763;48.370;10.874;2023-04-01T00:44:53;8.10;99.90
9450;DHT22;4763;48.370;10.874;2023-04-01T00:47:40;8.10;99.90
9450;DHT22;4763;48.370;10.874;2023-04-01T00:50:28;8.10;99.90
9450;DHT22;4763;48.370;10.874;2023-04-01T00:53:17;8.10;99.90
9450;DHT22;4763;48.370;10.874;2023-04-01T00:56:10;8.10;99.90
9450;DHT22;4763;48.370;10.874;2023-04-01T00:59:01;8.10;99.90
9450;DHT22;4763;48.370;10.874;2023-04-01T01:01:51;8.10;99.90
9450;DHT22;4763;48.370;10.874;2023-04-01T01:04:38;8.10;99.90
9450;DHT22;4763;48.370;10.874;2023-04-01T01:07:32;8.10;99.90
9450;DHT22;4763;48.370;10.874;2023-04-01T01:10:28;8.10;99.90
9450;DHT22;4763;48.370;10.874;2023-04-01T01:13:19;8.20;99.90
9450;DHT22;4763;48.370;10.874;2023-04-01T01:16:12;8.10;99.90
9450;DHT22;4763;48.370;10.874;2023-04-01T01:19:10;8.20;99.90
9450;DHT22;4763;48.370;10.874;2023-04-01T01:22:20;8.20;99.90
9450;DHT22;4763;48.370;10.874;2023-04-01T01:25:20;8.10;99.90
9450;DHT22;4763;48.370;10.874;2023-04-01T01:28:25;8.10;99.90
9450;DHT22;4763;48.370;10.874;2023-04-01T01:31:19;8.10;99.90
9450;DHT22;4763;48.370;10.874;2023-04-01T01:34:14;8.00;99.90
9450;DHT22;4763;48.370;10.874;2023-04-01T01:37:09;8.00;99.90
9450;DHT22;4763;48.370;10.874;2023-04-01T01:40:00;8.10;99.90
9450;DHT22;4763;48.370;10.874;2023-04-01T01:42:51;8.00;99.90
9450;DHT22;4763;48.370;10.874;2023-04-01T01:45:42;8.00;99.90
9450;DHT22;4763;48.370;10.874;2023-04-01T01:48:34;7.90;99.90
9450;DHT22;4763;48.370;10.874;2023-04-01T01:51:22;7.90;99.90
9450;DHT22;4763;48.370;10.874;2023-04-01T01:54:13;7.80;99.90
9450;DHT22;4763;48.370;10.874;2023-04-01T01:57:04;7.90;99.90
9450;DHT22;4763;48.370;10.874;2023-04-01T01:59:55;7.90;99.90
9450;DHT22;4763;48.370;10.874;2023-04-01T02:02:45;7.80;99.90
9450;DHT22;4763;48.370;10.874;2023-04-01T02:05:32;7.80;99.90
9450;DHT22;4763;48.370;10.874;2023-04-01T02:08:22;7.70;99.90
9450;DHT22;4763;48.370;10.874;2023-04-01T02:11:15;7.70;99.90
9450;DHT22;4763;48.370;10.874;2023-04-01T02:14:07;7.60;99.90
9450;DHT22;4763;48.370;10.874;2023-04-01T02:16:59;7.70;99.90
9450;DHT22;4763;48.370;10.874;2023-04-01T02:19:52;7.70;99.90
9450;DHT22;4763;48.370;10.874;2023-04-01T02:22:43;7.70;99.90
9450;DHT22;4763;48.370;10.874;2023-04-01T02:25:34;7.60;99.90
9450;DHT22;4763;48.370;10.874;2023-04-01T02:28:24;7.60;99.90
9450;DHT22;4763;48.370;10.874;2023-04-01T02:31:13;7.60;99.90
9450;DHT22;4763;48.370;10.874;2023-04-01T02:34:02;7.50;99.90
9450;DHT22;4763;48.370;10.874;2023-04-01T02:36:50;7.50;99.90
9450;DHT22;4763;48.370;10.874;2023-04-01T02:39:39;7.60;99.90
9450;DHT22;4763;48.370;10.874;2023-04-01T02:42:26;7.60;99.90
9450;DHT22;4763;48.370;10.874;2023-04-01T02:45:14;7.50;99.90
9450;DHT22;4763;48.370;10.874;2023-04-01T02:48:01;7.40;99.90
9450;DHT22;4763;48.370;10.874;2023-04-01T02:50:48;7.40;99.90
9450;DHT22;4763;48.370;10.874;2023-04-01T02:53:36;7.30;99.90
9450;DHT22;4763;48.370;10.874;2023-04-01T02:56:23;7.30;99.90
9450;DHT22;4763;48.370;10.874;2023-04-01T02:59:11;7.30;99.90
9450;DHT22;4763;48.370;10.874;2023-04-01T03:02:00;7.30;99.90
9450;DHT22;4763;48.370;10.874;2023-04-01T03:04:47;7.30;99.90
9450;DHT22;4763;48.370;10.874;2023-04-01T03:07:34;7.30;99.90
9450;DHT22;4763;48.370;10.874;2023-04-01T03:10:21;7.20;99.90
9450;DHT22;4763;48.370;10.874;2023-04-01T03:13:08;7.20;99.90
9450;DHT22;4763;48.370;10.874;2023-04-01T03:15:55;7.20;99.90
9450;DHT22;4763;48.370;10.874;2023-04-01T03:18:44;7.10;99.90
9450;DHT22;4763;48.370;10.874;2023-04-01T03:21:31;7.20;99.90
9450;DHT22;4763;48.370;10.874;2023-04-01T03:24:18;7.20;99.90
9450;DHT22;4763;48.370;10.874;2023-04-01T03:27:05;7.20;99.90
9450;DHT22;4763;48.370;10.874;2023-04-01T03:29:52;7.20;99.90
9450;DHT22;4763;48.370;10.874;2023-04-01T03:32:39;7.30;99.90
9450;DHT22;4763;48.370;10.874;2023-04-01T03:35:28;7.30;99.90
9450;DHT22;4763;48.370;10.874;2023-04-01T03:38:15;7.30;99.90
9450;DHT22;4763;48.370;10.874;2023-04-01T03:41:02;7.20;99.90
9450;DHT22;4763;48.370;10.874;2023-04-01T03:43:49;7.20;99.90
9450;DHT22;4763;48.370;10.874;2023-04-01T03:46:36;7.20;99.90
9450;DHT22;4763;48.370;10.874;2023-04-01T03:49:24;7.20;99.90
9450;DHT22;4763;48.370;10.874;2023-04-01T03:52:12;7.20;99.90
9450;DHT22;4763;48.370;10.874;2023-04-01T03:55:00;7.20;99.90
9450;DHT22;4763;48.370;10.874;2023-04-01T03:57:47;7.30;99.90
9450;DHT22;4763;48.370;10.874;2023-04-01T04:00:34;7.30;99.90
9450;DHT22;4763;48.370;10.874;2023-04-01T04:03:21;7.30;99.90
9450;DHT22;4763;48.370;10.874;2023-04-01T04:06:11;7.30;99.90
9450;DHT22;4763;48.370;10.874;2023-04-01T04:08:59;7.30;99.90
9450;DHT22;4763;48.370;10.874;2023-04-01T04:11:46;7.20;99.90
9450;DHT22;4763;48.370;10.874;2023-04-01T04:14:33;7.30;99.90
9450;DHT22;4763;48.370;10.874;2023-04-01T04:17:20;7.20;99.90
9450;DHT22;4763;48.370;10.874;2023-04-01T04:20:08;7.20;99.90
9450;DHT22;4763;48.370;10.874;2023-04-01T04:22:55;7.30;99.90
9450;DHT22;4763;48.370;10.874;2023-04-01T04:25:54;7.30;99.90
9450;DHT22;4763;48.370;10.874;2023-04-01T04:28:42;7.20;99.90
9450;DHT22;4763;48.370;10.874;2023-04-01T04:31:29;7.20;99.90
9450;DHT22;4763;48.370;10.874;2023-04-01T04:34:16;7.10;99.90
9450;DHT22;4763;48.370;10.874;2023-04-01T04:37:04;7.10;99.90
9450;DHT22;4763;48.370;10.874;2023-04-01T04:39:51;7.10;99.90
9450;DHT22;4763;48.370;10.874;2023-04-01T04:42:39;7.00;99.90
9450;DHT22;4763;48.370;10.874;2023-04-01T04:45:26;7.10;99.90
9450;DHT22;4763;48.370;10.874;2023-04-01T04:48:15;7.10;99.90
9450;DHT22;4763;48.370;10.874;2023-04-01T04:51:04;7.10;99.90
9450;DHT22;4763;48.370;10.874;2023-04-01T04:53:51;7.20;99.90
9450;DHT22;4763;48.370;10.874;2023-04-01T04:56:38;7.20;99.90
9450;DHT22;4763;48.370;10.874;2023-04-01T04:59:27;7.20;99.90
9450;DHT22;4763;48.370;10.874;2023-04-01T05:02:14;7.20;99.90
9450;DHT22;4763;48.370;10.874;2023-04-01T05:05:01;7.20;99.90
9450;DHT22;4763;48.370;10.874;2023-04-01T05:07:48;7.30;99.90
9450;DHT22;4763;48.370;10.874;2023-04-01T05:10:35;7.30;99.90
9450;DHT22;4763;48.370;10.874;2023-04-01T05:13:22;7.30;99.90
9450;DHT22;4763;48.370;10.874;2023-04-01T05:16:12;7.30;99.90
9450;DHT22;4763;48.370;10.874;2023-04-01T05:19:00;7.40;99.90
9450;DHT22;4763;48.370;10.874;2023-04-01T05:21:47;7.40;99.90
9450;DHT22;4763;48.370;10.874;2023-04-01T05:24:34;7.40;99.90
9450;DHT22;4763;48.370;10.874;2023-04-01T05:27:21;7.40;99.90
9450;DHT22;4763;48.370;10.874;2023-04-01T05:30:09;7.50;99.90
9450;DHT22;4763;48.370;10.874;2023-04-01T05:32:58;7.50;99.90
9450;DHT22;4763;48.370;10.874;2023-04-01T05:35:45;7.50;99.90
9450;DHT22;4763;48.370;10.874;2023-04-01T05:38:32;7.40;99.90
9450;DHT22;4763;48.370;10.874;2023-04-01T05:41:19;7.50;99.90
9450;DHT22;4763;48.370;10.874;2023-04-01T05:44:06;7.40;99.90
9450;DHT22;4763;48.370;10.874;2023-04-01T05:46:53;7.50;99.90
9450;DHT22;4763;48.370;10.874;2023-04-01T05:49:41;7.40;99.90
9450;DHT22;4763;48.370;10.874;2023-04-01T05:52:28;7.40;99.90
9450;DHT22;4763;48.370;10.874;2023-04-01T05:55:15;7.50;99.90
9450;DHT22;4763;48.370;10.874;2023-04-01T05:58:03;7.50;99.90
9450;DHT22;4763;48.370;10.874;2023-04-01T06:00:50;7.40;99.90
9450;DHT22;4763;48.370;10.874;2023-04-01T06:03:37;7.40;99.90
9450;DHT22;4763;48.370;10.874;2023-04-01T06:06:27;7.40;99.90
9450;DHT22;4763;48.370;10.874;2023-04-01T06:09:16;7.50;99.90
9450;DHT22;4763;48.370;10.874;2023-04-01T06:12:22;7.60;99.90
9450;DHT22;4763;48.370;10.874;2023-04-01T06:15:20;7.60;99.90
9450;DHT22;4763;48.370;10.874;2023-04-01T06:18:39;7.70;99.90
9450;DHT22;4763;48.370;10.874;2023-04-01T06:25:10;7.90;99.90
9450;DHT22;4763;48.370;10.874;2023-04-01T06:28:08;8.00;99.90
9450;DHT22;4763;48.370;10.874;2023-04-01T06:31:06;8.00;99.90
9450;DHT22;4763;48.370;10.874;2023-04-01T06:34:08;8.10;99.90
9450;DHT22;4763;48.370;10.874;2023-04-01T06:37:15;8.30;99.90
9450;DHT22;4763;48.370;10.874;2023-04-01T06:40:22;8.30;99.90
9450;DHT22;4763;48.370;10.874;2023-04-01T06:43:18;8.30;99.90
9450;DHT22;4763;48.370;10.874;2023-04-01T06:46:11;8.30;99.90
9450;DHT22;4763;48.370;10.874;2023-04-01T06:49:17;8.30;99.90
9450;DHT22;4763;48.370;10.874;2023-04-01T06:52:19;8.40;99.90
9450;DHT22;4763;48.370;10.874;2023-04-01T06:55:21;8.40;99.90
9450;DHT22;4763;48.370;10.874;2023-04-01T06:58:16;8.60;99.90
9450;DHT22;4763;48.370;10.874;2023-04-01T07:01:08;8.60;99.90
9450;DHT22;4763;48.370;10.874;2023-04-01T07:03:59;8.70;99.90
9450;DHT22;4763;48.370;10.874;2023-04-01T07:06:50;8.80;99.90
9450;DHT22;4763;48.370;10.874;2023-04-01T07:09:43;9.00;99.90
9450;DHT22;4763;48.370;10.874;2023-04-01T07:12:40;9.10;99.90
9450;DHT22;4763;48.370;10.874;2023-04-01T07:15:35;9.10;99.90
9450;DHT22;4763;48.370;10.874;2023-04-01T07:18:30;9.00;99.90
9450;DHT22;4763;48.370;10.874;2023-04-01T07:21:30;9.00;99.90
9450;DHT22;4763;48.370;10.874;2023-04-01T07:24:23;9.10;99.90
9450;DHT22;4763;48.370;10.874;2023-04-01T07:27:14;9.10;99.90
9450;DHT22;4763;48.370;10.874;2023-04-01T07:30:01;9.20;99.90
9450;DHT22;4763;48.370;10.874;2023-04-01T07:32:53;9.30;99.90
9450;DHT22;4763;48.370;10.874;2023-04-01T07:35:47;9.10;99.90
9450;DHT22;4763;48.370;10.874;2023-04-01T07:38:44;9.10;99.90
9450;DHT22;4763;48.370;10.874;2023-04-01T07:41:39;9.10;99.90
9450;DHT22;4763;48.370;10.874;2023-04-01T07:44:34;9.10;99.90
9450;DHT22;4763;48.370;10.874;2023-04-01T07:47:37;9.20;99.90
9450;DHT22;4763;48.370;10.874;2023-04-01T07:50:28;9.20;99.90
9450;DHT22;4763;48.370;10.874;2023-04-01T07:53:20;9.10;99.90
9450;DHT22;4763;48.370;10.874;2023-04-01T07:56:15;9.20;99.90
9450;DHT22;4763;48.370;10.874;2023-04-01T07:59:08;9.20;99.90
9450;DHT22;4763;48.370;10.874;2023-04-01T08:02:06;9.40;99.90
9450;DHT22;4763;48.370;10.874;2023-04-01T08:05:04;9.30;99.90
9450;DHT22;4763;48.370;10.874;2023-04-01T08:08:02;9.30;99.90
9450;DHT22;4763;48.370;10.874;2023-04-01T08:10:57;9.30;99.90
9450;DHT22;4763;48.370;10.874;2023-04-01T08:13:56;9.30;99.90
9450;DHT22;4763;48.370;10.874;2023-04-01T08:16:51;9.40;99.90
9450;DHT22;4763;48.370;10.874;2023-04-01T08:19:53;9.50;99.90
9450;DHT22;4763;48.370;10.874;2023-04-01T08:22:47;9.70;99.90
9450;DHT22;4763;48.370;10.874;2023-04-01T08:25:37;9.80;99.90
9450;DHT22;4763;48.370;10.874;2023-04-01T08:28:30;10.10;99.90
9450;DHT22;4763;48.370;10.874;2023-04-01T08:31:24;10.20;99.90
9450;DHT22;4763;48.370;10.874;2023-04-01T08:34:19;10.20;99.90
9450;DHT22;4763;48.370;10.874;2023-04-01T08:37:12;10.50;99.90
9450;DHT22;4763;48.370;10.874;2023-04-01T08:40:25;10.40;99.90
9450;DHT22;4763;48.370;10.874;2023-04-01T08:43:16;10.40;99.90
9450;DHT22;4763;48.370;10.874;2023-04-01T08:46:24;10.30;99.90
9450;DHT22;4763;48.370;10.874;2023-04-01T08:49:31;10.20;99.90
9450;DHT22;4763;48.370;10.874;2023-04-01T08:52:35;10.30;99.90
9450;DHT22;4763;48.370;10.874;2023-04-01T08:55:35;10.40;99.90
9450;DHT22;4763;48.370;10.874;2023-04-01T09:02:09;10.50;99.90
9450;DHT22;4763;48.370;10.874;2023-04-01T09:05:14;10.50;99.90
9450;DHT22;4763;48.370;10.874;2023-04-01T09:08:17;10.50;99.90
9450;DHT22;4763;48.370;10.874;2023-04-01T09:11:20;10.50;99.90
9450;DHT22;4763;48.370;10.874;2023-04-01T09:14:21;10.50;99.90
9450;DHT22;4763;48.370;10.874;2023-04-01T09:20:49;10.80;99.90
9450;DHT22;4763;48.370;10.874;2023-04-01T09:24:08;10.80;99.90
9450;DHT22;4763;48.370;10.874;2023-04-01T09:27:04;10.80;99.90
9450;DHT22;4763;48.370;10.874;2023-04-01T09:30:17;11.00;99.90
9450;DHT22;4763;48.370;10.874;2023-04-01T09:33:22;10.90;99.90
9450;DHT22;4763;48.370;10.874;2023-04-01T09:36:25;10.90;99.90
9450;DHT22;4763;48.370;10.874;2023-04-01T09:39:31;10.90;99.90
9450;DHT22;4763;48.370;10.874;2023-04-01T09:42:42;10.90;99.90
9450;DHT22;4763;48.370;10.874;2023-04-01T09:45:44;11.00;99.90
9450;DHT22;4763;48.370;10.874;2023-04-01T09:48:52;11.10;99.90
9450;DHT22;4763;48.370;10.874;2023-04-01T09:51:52;11.20;99.90
9450;DHT22;4763;48.370;10.874;2023-04-01T09:54:56;11.00;99.90
9450;DHT22;4763;48.370;10.874;2023-04-01T09:58:02;10.80;99.90
9450;DHT22;4763;48.370;10.874;2023-04-01T10:01:32;10.70;99.90
9450;DHT22;4763;48.370;10.874;2023-04-01T10:04:47;10.70;99.90
9450;DHT22;4763;48.370;10.874;2023-04-01T10:08:05;10.80;99.90
9450;DHT22;4763;48.370;10.874;2023-04-01T10:11:19;10.60;99.90
9450;DHT22;4763;48.370;10.874;2023-04-01T10:17:52;10.40;99.90
9450;DHT22;4763;48.370;10.874;2023-04-01T10:24:25;10.30;99.90
9450;DHT22;4763;48.370;10.874;2023-04-01T10:27:33;10.40;99.90
9450;DHT22;4763;48.370;10.874;2023-04-01T10:30:56;10.20;99.90
9450;DHT22;4763;48.370;10.874;2023-04-01T10:34:05;10.10;99.90
9450;DHT22;4763;48.370;10.874;2023-04-01T10:37:10;10.00;99.90
9450;DHT22;4763;48.370;10.874;2023-04-01T10:40:25;9.80;99.90
9450;DHT22;4763;48.370;10.874;2023-04-01T10:43:52;9.60;99.90
9450;DHT22;4763;48.370;10.874;2023-04-01T10:47:11;9.50;99.90
9450;DHT22;4763;48.370;10.874;2023-04-01T10:50:19;9.40;99.90
9450;DHT22;4763;48.370;10.874;2023-04-01T10:53:37;9.30;99.90
9450;DHT22;4763;48.370;10.874;2023-04-01T10:56:39;9.10;99.90
9450;DHT22;4763;48.370;10.874;2023-04-01T11:10:45;8.70;99.90
9450;DHT22;4763;48.370;10.874;2023-04-01T11:17:22;8.70;99.90
9450;DHT22;4763;48.370;10.874;2023-04-01T11:20:45;8.70;99.90
9450;DHT22;4763;48.370;10.874;2023-04-01T11:23:53;8.70;99.90
9450;DHT22;4763;48.370;10.874;2023-04-01T11:26:52;8.60;99.90
9450;DHT22;4763;48.370;10.874;2023-04-01T11:30:06;8.60;99.90
9450;DHT22;4763;48.370;10.874;2023-04-01T11:33:02;8.50;99.90
9450;DHT22;4763;48.370;10.874;2023-04-01T11:36:11;8.60;99.90
9450;DHT22;4763;48.370;10.874;2023-04-01T11:39:14;8.60;99.90
9450;DHT22;4763;48.370;10.874;2023-04-01T11:42:16;8.50;99.90
9450;DHT22;4763;48.370;10.874;2023-04-01T11:45:15;8.60;99.90
9450;DHT22;4763;48.370;10.874;2023-04-01T11:48:36;8.70;99.90
9450;DHT22;4763;48.370;10.874;2023-04-01T11:51:59;8.70;99.90
9450;DHT22;4763;48.370;10.874;2023-04-01T11:54:56;8.70;99.90
9450;DHT22;4763;48.370;10.874;2023-04-01T11:58:04;8.90;99.90
9450;DHT22;4763;48.370;10.874;2023-04-01T12:01:14;8.80;99.90
9450;DHT22;4763;48.370;10.874;2023-04-01T12:04:24;8.90;99.90
9450;DHT22;4763;48.370;10.874;2023-04-01T12:07:21;8.90;99.90
9450;DHT22;4763;48.370;10.874;2023-04-01T12:10:17;8.90;99.90
9450;DHT22;4763;48.370;10.874;2023-04-01T12:13:10;8.90;99.90
9450;DHT22;4763;48.370;10.874;2023-04-01T12:16:15;8.90;99.90
9450;DHT22;4763;48.370;10.874;2023-04-01T12:19:10;8.90;99.90
9450;DHT22;4763;48.370;10.874;2023-04-01T12:22:33;8.90;99.90
9450;DHT22;4763;48.370;10.874;2023-04-01T12:28:54;9.00;99.90
9450;DHT22;4763;48.370;10.874;2023-04-01T12:31:52;9.00;99.90
9450;DHT22;4763;48.370;10.874;2023-04-01T12:34:58;9.00;99.90
9450;DHT22;4763;48.370;10.874;2023-04-01T12:38:02;9.00;99.90
9450;DHT22;4763;48.370;10.874;2023-04-01T12:41:08;9.00;99.90
9450;DHT22;4763;48.370;10.874;2023-04-01T12:44:21;9.00;99.90
9450;DHT22;4763;48.370;10.874;2023-04-01T12:47:27;9.00;99.90
9450;DHT22;4763;48.370;10.874;2023-04-01T12:50:30;9.10;99.90
9450;DHT22;4763;48.370;10.874;2023-04-01T12:53:42;9.00;99.90
9450;DHT22;4763;48.370;10.874;2023-04-01T12:56:41;9.10;99.90
9450;DHT22;4763;48.370;10.874;2023-04-01T12:59:52;9.20;99.90
9450;DHT22;4763;48.370;10.874;2023-04-01T13:02:57;9.40;99.90
9450;DHT22;4763;48.370;10.874;2023-04-01T13:06:12;9.50;99.90
9450;DHT22;4763;48.370;10.874;2023-04-01T13:09:17;9.50;99.90
9450;DHT22;4763;48.370;10.874;2023-04-01T13:12:36;9.40;99.90
9450;DHT22;4763;48.370;10.874;2023-04-01T13:15:33;9.40;99.90
9450;DHT22;4763;48.370;10.874;2023-04-01T13:18:31;9.40;99.90
9450;DHT22;4763;48.370;10.874;2023-04-01T13:21:26;9.40;99.90
9450;DHT22;4763;48.370;10.874;2023-04-01T13:24:24;9.30;99.90
9450;DHT22;4763;48.370;10.874;2023-04-01T13:27:18;9.30;99.90
9450;DHT22;4763;48.370;10.874;2023-04-01T13:30:22;9.40;99.90
9450;DHT22;4763;48.370;10.874;2023-04-01T13:33:19;9.50;99.90
9450;DHT22;4763;48.370;10.874;2023-04-01T13:36:17;9.50;99.90
9450;DHT22;4763;48.370;10.874;2023-04-01T13:39:33;9.60;99.90
9450;DHT22;4763;48.370;10.874;2023-04-01T13:42:25;9.80;99.90
9450;DHT22;4763;48.370;10.874;2023-04-01T13:45:16;9.90;99.90
9450;DHT22;4763;48.370;10.874;2023-04-01T13:48:27;9.90;99.90
9450;DHT22;4763;48.370;10.874;2023-04-01T13:51:49;9.90;99.90
9450;DHT22;4763;48.370;10.874;2023-04-01T13:58:19;10.10;99.90
9450;DHT22;4763;48.370;10.874;2023-04-01T14:01:13;10.30;99.90
9450;DHT22;4763;48.370;10.874;2023-04-01T14:07:36;10.70;99.90
9450;DHT22;4763;48.370;10.874;2023-04-01T14:10:33;10.80;99.90
9450;DHT22;4763;48.370;10.874;2023-04-01T14:13:30;10.90;99.90
9450;DHT22;4763;48.370;10.874;2023-04-01T14:16:44;11.00;99.90
9450;DHT22;4763;48.370;10.874;2023-04-01T14:19:52;11.10;99.90
9450;DHT22;4763;48.370;10.874;2023-04-01T14:22:57;10.70;99.90
9450;DHT22;4763;48.370;10.874;2023-04-01T14:26:04;10.50;99.90
9450;DHT22;4763;48.370;10.874;2023-04-01T14:29:01;10.50;99.90
9450;DHT22;4763;48.370;10.874;2023-04-01T14:32:02;10.30;99.90
9450;DHT22;4763;48.370;10.874;2023-04-01T14:35:00;10.30;99.90
9450;DHT22;4763;48.370;10.874;2023-04-01T14:38:09;10.20;99.90
9450;DHT22;4763;48.370;10.874;2023-04-01T14:41:17;10.00;99.90
9450;DHT22;4763;48.370;10.874;2023-04-01T14:44:24;10.10;99.90
9450;DHT22;4763;48.370;10.874;2023-04-01T14:47:28;10.00;99.90
9450;DHT22;4763;48.370;10.874;2023-04-01T14:50:21;10.10;99.90
9450;DHT22;4763;48.370;10.874;2023-04-01T14:53:12;10.20;99.90
9450;DHT22;4763;48.370;10.874;2023-04-01T14:56:03;10.30;99.90
9450;DHT22;4763;48.370;10.874;2023-04-01T14:58:57;10.40;99.90
9450;DHT22;4763;48.370;10.874;2023-04-01T15:01:50;10.50;99.90
9450;DHT22;4763;48.370;10.874;2023-04-01T15:04:52;10.80;99.90
9450;DHT22;4763;48.370;10.874;2023-04-01T15:07:59;11.20;99.90
9450;DHT22;4763;48.370;10.874;2023-04-01T15:14:27;11.40;99.90
9450;DHT22;4763;48.370;10.874;2023-04-01T15:17:34;11.40;99.90
9450;DHT22;4763;48.370;10.874;2023-04-01T15:20:40;11.10;99.90
9450;DHT22;4763;48.370;10.874;2023-04-01T15:23:40;11.00;99.90
9450;DHT22;4763;48.370;10.874;2023-04-01T15:27:00;10.90;99.90
9450;DHT22;4763;48.370;10.874;2023-04-01T15:30:14;10.90;99.90
9450;DHT22;4763;48.370;10.874;2023-04-01T15:33:28;10.90;99.90
9450;DHT22;4763;48.370;10.874;2023-04-01T15:36:29;10.80;99.90
9450;DHT22;4763;48.370;10.874;2023-04-01T15:39:24;10.70;99.90
9450;DHT22;4763;48.370;10.874;2023-04-01T15:42:28;10.60;99.90
9450;DHT22;4763;48.370;10.874;2023-04-01T15:45:30;10.50;99.90
9450;DHT22;4763;48.370;10.874;2023-04-01T15:48:30;10.40;99.90
9450;DHT22;4763;48.370;10.874;2023-04-01T15:51:37;10.40;99.90
9450;DHT22;4763;48.370;10.874;2023-04-01T15:54:46;10.40;99.90
9450;DHT22;4763;48.370;10.874;2023-04-01T15:57:42;10.60;99.90
9450;DHT22;4763;48.370;10.874;2023-04-01T16:00:43;10.70;99.90
9450;DHT22;4763;48.370;10.874;2023-04-01T16:03:37;10.70;99.90
9450;DHT22;4763;48.370;10.874;2023-04-01T16:06:53;10.60;99.90
9450;DHT22;4763;48.370;10.874;2023-04-01T16:09:55;10.60;99.90
9450;DHT22;4763;48.370;10.874;2023-04-01T16:12:58;10.40;99.90
9450;DHT22;4763;48.370;10.874;2023-04-01T16:15:58;10.30;99.90
9450;DHT22;4763;48.370;10.874;2023-04-01T16:19:03;10.30;99.90
9450;DHT22;4763;48.370;10.874;2023-04-01T16:22:01;10.30;99.90
9450;DHT22;4763;48.370;10.874;2023-04-01T16:24:56;10.20;99.90
9450;DHT22;4763;48.370;10.874;2023-04-01T16:27:52;10.10;99.90
9450;DHT22;4763;48.370;10.874;2023-04-01T16:30:45;10.20;99.90
9450;DHT22;4763;48.370;10.874;2023-04-01T16:33:46;10.10;99.90
9450;DHT22;4763;48.370;10.874;2023-04-01T16:36:37;10.10;99.90
9450;DHT22;4763;48.370;10.874;2023-04-01T16:39:32;10.00;99.90
9450;DHT22;4763;48.370;10.874;2023-04-01T16:42:31;10.00;99.90
9450;DHT22;4763;48.370;10.874;2023-04-01T16:45:32;10.00;99.90
9450;DHT22;4763;48.370;10.874;2023-04-01T16:48:22;9.90;99.90
9450;DHT22;4763;48.370;10.874;2023-04-01T16:51:15;9.90;99.90
9450;DHT22;4763;48.370;10.874;2023-04-01T16:54:05;9.80;99.90
9450;DHT22;4763;48.370;10.874;2023-04-01T16:56:55;9.80;99.90
9450;DHT22;4763;48.370;10.874;2023-04-01T16:59:47;9.70;99.90
9450;DHT22;4763;48.370;10.874;2023-04-01T17:02:38;9.70;99.90
9450;DHT22;4763;48.370;10.874;2023-04-01T17:05:39;9.70;99.90
9450;DHT22;4763;48.370;10.874;2023-04-01T17:08:49;9.60;99.90
9450;DHT22;4763;48.370;10.874;2023-04-01T17:11:40;9.60;99.90
9450;DHT22;4763;48.370;10.874;2023-04-01T17:14:34;9.60;99.90
9450;DHT22;4763;48.370;10.874;2023-04-01T17:17:29;9.50;99.90
9450;DHT22;4763;48.370;10.874;2023-04-01T17:20:36;9.50;99.90
9450;DHT22;4763;48.370;10.874;2023-04-01T17:23:32;9.50;99.90
9450;DHT22;4763;48.370;10.874;2023-04-01T17:26:26;9.40;99.90
9450;DHT22;4763;48.370;10.874;2023-04-01T17:29:22;9.40;99.90
9450;DHT22;4763;48.370;10.874;2023-04-01T17:32:16;9.40;99.90
9450;DHT22;4763;48.370;10.874;2023-04-01T17:35:12;9.40;99.90
9450;DHT22;4763;48.370;10.874;2023-04-01T17:38:13;9.40;99.90
9450;DHT22;4763;48.370;10.874;2023-04-01T17:41:09;9.30;99.90
9450;DHT22;4763;48.370;10.874;2023-04-01T17:44:12;9.30;99.90
9450;DHT22;4763;48.370;10.874;2023-04-01T17:47:18;9.30;99.90
9450;DHT22;4763;48.370;10.874;2023-04-01T17:50:22;9.30;99.90
9450;DHT22;4763;48.370;10.874;2023-04-01T17:53:20;9.20;99.90
9450;DHT22;4763;48.370;10.874;2023-04-01T17:56:28;9.30;99.90
9450;DHT22;4763;48.370;10.874;2023-04-01T17:59:23;9.30;99.90
9450;DHT22;4763;48.370;10.874;2023-04-01T18:02:23;9.30;99.90
9450;DHT22;4763;48.370;10.874;2023-04-01T18:05:26;9.30;99.90
9450;DHT22;4763;48.370;10.874;2023-04-01T18:08:22;9.20;99.90
9450;DHT22;4763;48.370;10.874;2023-04-01T18:11:16;9.10;99.90
9450;DHT22;4763;48.370;10.874;2023-04-01T18:14:24;9.10;99.90
9450;DHT22;4763;48.370;10.874;2023-04-01T18:17:21;9.00;99.90
9450;DHT22;4763;48.370;10.874;2023-04-01T18:20:33;9.00;99.90
9450;DHT22;4763;48.370;10.874;2023-04-01T18:23:28;9.00;99.90
9450;DHT22;4763;48.370;10.874;2023-04-01T18:26:21;9.00;99.90
9450;DHT22;4763;48.370;10.874;2023-04-01T18:29:17;9.00;99.90
9450;DHT22;4763;48.370;10.874;2023-04-01T18:32:15;9.00;99.90
9450;DHT22;4763;48.370;10.874;2023-04-01T18:35:17;9.00;99.90
9450;DHT22;4763;48.370;10.874;2023-04-01T18:38:11;9.00;99.90
9450;DHT22;4763;48.370;10.874;2023-04-01T18:41:13;9.00;99.90
9450;DHT22;4763;48.370;10.874;2023-04-01T18:44:18;9.00;99.90
9450;DHT22;4763;48.370;10.874;2023-04-01T18:47:20;9.00;99.90
9450;DHT22;4763;48.370;10.874;2023-04-01T18:50:15;9.00;99.90
9450;DHT22;4763;48.370;10.874;2023-04-01T18:53:14;9.00;99.90
9450;DHT22;4763;48.370;10.874;2023-04-01T18:56:05;9.00;99.90
9450;DHT22;4763;48.370;10.874;2023-04-01T18:58:57;9.00;99.90
9450;DHT22;4763;48.370;10.874;2023-04-01T19:01:52;9.00;99.90
9450;DHT22;4763;48.370;10.874;2023-04-01T19:04:49;9.00;99.90
9450;DHT22;4763;48.370;10.874;2023-04-01T19:07:46;9.00;99.90
9450;DHT22;4763;48.370;10.874;2023-04-01T19:10:40;9.00;99.90
9450;DHT22;4763;48.370;10.874;2023-04-01T19:13:37;9.00;99.90
9450;DHT22;4763;48.370;10.874;2023-04-01T19:16:38;9.00;99.90
9450;DHT22;4763;48.370;10.874;2023-04-01T19:19:48;8.90;99.90
9450;DHT22;4763;48.370;10.874;2023-04-01T19:22:49;9.00;99.90
9450;DHT22;4763;48.370;10.874;2023-04-01T19:25:40;9.00;99.90
9450;DHT22;4763;48.370;10.874;2023-04-01T19:28:38;9.00;99.90
9450;DHT22;4763;48.370;10.874;2023-04-01T19:31:49;8.90;99.90
9450;DHT22;4763;48.370;10.874;2023-04-01T19:34:49;8.90;99.90
9450;DHT22;4763;48.370;10.874;2023-04-01T19:37:44;8.90;99.90
9450;DHT22;4763;48.370;10.874;2023-04-01T19:40:46;8.90;99.90
9450;DHT22;4763;48.370;10.874;2023-04-01T19:43:44;8.90;99.90
9450;DHT22;4763;48.370;10.874;2023-04-01T19:46:36;8.90;99.90
9450;DHT22;4763;48.370;10.874;2023-04-01T19:49:36;8.90;99.90
9450;DHT22;4763;48.370;10.874;2023-04-01T19:52:31;8.80;99.90
9450;DHT22;4763;48.370;10.874;2023-04-01T19:55:27;8.90;99.90